sensor_id;sensor_type;location;lat;lon;timestamp;pressure;altitude;pressure_sealevel;temperature;humidity
63090;BME280;49174;43.198;27.824;2023-05-21T00:00:12;101302.19;;;15.85;79.57
63090;BME280;49174;43.198;27.824;2023-05-21T00:02:38;101296.81;;;15.78;80.55
63090;BME280;49174;43.198;27.824;2023-05-21T00:05:04;101302.00;;;15.86;81.04
63090;BME280;49174;43.198;27.824;2023-05-21T00:07:30;101303.88;;;15.86;80.75
63090;BME280;49174;43.198;27.824;2023-05-21T00:09:57;101300.09;;;15.87;79.20
63090;BME280;49174;43.198;27.824;2023-05-21T00:12:23;101300.97;;;15.81;79.54
63090;BME280;49174;43.198;27.824;2023-05-21T00:14:48;101300.59;;;15.77;80.46
63090;BME280;49174;43.198;27.824;2023-05-21T00:17:14;101295.53;;;15.81;78.20
63090;BME280;49174;43.198;27.824;2023-05-21T00:19:40;101296.75;;;15.85;76.21
63090;BME280;49174;43.198;27.824;2023-05-21T00:22:05;101296.34;;;15.88;76.94
63090;BME280;49174;43.198;27.824;2023-05-21T00:28:09;101296.22;;;16.01;76.89
63090;BME280;49174;43.198;27.824;2023-05-21T00:34:08;101284.06;;;16.04;75.50
63090;BME280;49174;43.198;27.824;2023-05-21T00:36:33;101288.69;;;16.03;75.81
63090;BME280;49174;43.198;27.824;2023-05-21T00:38:59;101289.06;;;16.07;76.05
63090;BME280;49174;43.198;27.824;2023-05-21T00:41:26;101287.25;;;16.01;76.77
63090;BME280;49174;43.198;27.824;2023-05-21T00:43:54;101298.78;;;15.96;76.08
63090;BME280;49174;43.198;27.824;2023-05-21T00:55:02;101287.94;;;15.90;78.58
63090;BME280;49174;43.198;27.824;2023-05-21T00:57:46;101290.09;;;15.81;77.91
63090;BME280;49174;43.198;27.824;2023-05-21T01:04:34;101286.56;;;15.74;78.47
63090;BME280;49174;43.198;27.824;2023-05-21T01:19:44;101267.75;;;15.65;80.45
63090;BME280;49174;43.198;27.824;2023-05-21T01:25:34;101264.91;;;15.47;82.00
63090;BME280;49174;43.198;27.824;2023-05-21T01:27:59;101268.22;;;15.56;82.37
63090;BME280;49174;43.198;27.824;2023-05-21T01:30:25;101259.03;;;15.50;83.02
63090;BME280;49174;43.198;27.824;2023-05-21T01:33:15;101250.25;;;15.48;82.75
63090;BME280;49174;43.198;27.824;2023-05-21T01:36:02;101252.19;;;15.41;81.62
63090;BME280;49174;43.198;27.824;2023-05-21T01:38:47;101252.25;;;15.28;82.04
63090;BME280;49174;43.198;27.824;2023-05-21T01:41:17;101256.03;;;15.27;81.63
63090;BME280;49174;43.198;27.824;2023-05-21T01:43:48;101258.56;;;15.22;82.12
63090;BME280;49174;43.198;27.824;2023-05-21T01:47:20;101247.44;;;15.23;82.94
63090;BME280;49174;43.198;27.824;2023-05-21T01:54:52;101250.59;;;15.27;80.08
63090;BME280;49174;43.198;27.824;2023-05-21T02:02:01;101229.38;;;14.97;81.06
63090;BME280;49174;43.198;27.824;2023-05-21T02:04:27;101232.09;;;14.97;81.21
63090;BME280;49174;43.198;27.824;2023-05-21T02:06:52;101226.25;;;14.93;80.72
63090;BME280;49174;43.198;27.824;2023-05-21T02:09:19;101224.38;;;14.81;81.27
63090;BME280;49174;43.198;27.824;2023-05-21T02:11:45;101223.56;;;14.80;86.10
63090;BME280;49174;43.198;27.824;2023-05-21T02:14:11;101229.81;;;14.81;86.73
63090;BME280;49174;43.198;27.824;2023-05-21T02:16:39;101238.41;;;14.78;87.57
63090;BME280;49174;43.198;27.824;2023-05-21T02:19:04;101240.25;;;14.84;87.39
63090;BME280;49174;43.198;27.824;2023-05-21T02:21:31;101230.66;;;14.81;87.40
63090;BME280;49174;43.198;27.824;2023-05-21T02:23:56;101236.75;;;14.77;86.27
63090;BME280;49174;43.198;27.824;2023-05-21T02:26:22;101232.16;;;14.77;83.98
63090;BME280;49174;43.198;27.824;2023-05-21T02:28:48;101236.31;;;14.80;86.11
63090;BME280;49174;43.198;27.824;2023-05-21T02:31:14;101229.00;;;14.73;85.53
63090;BME280;49174;43.198;27.824;2023-05-21T02:33:40;101229.81;;;14.81;85.35
63090;BME280;49174;43.198;27.824;2023-05-21T02:36:06;101228.75;;;14.82;85.61
63090;BME280;49174;43.198;27.824;2023-05-21T02:38:40;101229.63;;;14.75;87.09
63090;BME280;49174;43.198;27.824;2023-05-21T02:41:11;101235.28;;;14.74;87.20
63090;BME280;49174;43.198;27.824;2023-05-21T02:43:37;101223.38;;;14.68;86.93
63090;BME280;49174;43.198;27.824;2023-05-21T02:46:04;101224.41;;;14.67;86.32
63090;BME280;49174;43.198;27.824;2023-05-21T02:48:31;101230.69;;;14.68;86.29
63090;BME280;49174;43.198;27.824;2023-05-21T02:50:57;101229.41;;;14.70;86.41
63090;BME280;49174;43.198;27.824;2023-05-21T02:53:23;101225.28;;;14.61;85.51
63090;BME280;49174;43.198;27.824;2023-05-21T02:55:49;101234.47;;;14.53;83.01
63090;BME280;49174;43.198;27.824;2023-05-21T02:58:14;101226.94;;;14.49;81.93
63090;BME280;49174;43.198;27.824;2023-05-21T03:00:40;101226.56;;;14.52;80.27
63090;BME280;49174;43.198;27.824;2023-05-21T03:03:06;101235.94;;;14.56;78.76
63090;BME280;49174;43.198;27.824;2023-05-21T03:05:32;101231.13;;;14.58;79.50
63090;BME280;49174;43.198;27.824;2023-05-21T03:07:57;101228.63;;;14.63;79.63
63090;BME280;49174;43.198;27.824;2023-05-21T03:10:23;101231.94;;;14.45;80.25
63090;BME280;49174;43.198;27.824;2023-05-21T03:13:35;101239.03;;;14.40;83.45
63090;BME280;49174;43.198;27.824;2023-05-21T03:30:14;101240.72;;;14.74;84.75
63090;BME280;49174;43.198;27.824;2023-05-21T03:32:40;101238.41;;;14.78;85.28
63090;BME280;49174;43.198;27.824;2023-05-21T03:35:06;101228.78;;;14.88;85.03
63090;BME280;49174;43.198;27.824;2023-05-21T03:37:31;101231.88;;;14.92;84.21
63090;BME280;49174;43.198;27.824;2023-05-21T03:39:57;101229.78;;;14.94;83.61
63090;BME280;49174;43.198;27.824;2023-05-21T03:42:22;101226.41;;;15.05;82.45
63090;BME280;49174;43.198;27.824;2023-05-21T03:44:48;101234.31;;;15.13;82.82
63090;BME280;49174;43.198;27.824;2023-05-21T03:47:13;101244.34;;;15.19;81.70
63090;BME280;49174;43.198;27.824;2023-05-21T03:49:39;101249.28;;;15.36;81.29
63090;BME280;49174;43.198;27.824;2023-05-21T03:52:05;101239.19;;;15.43;81.23
63090;BME280;49174;43.198;27.824;2023-05-21T03:54:30;101241.03;;;15.56;79.09
63090;BME280;49174;43.198;27.824;2023-05-21T03:56:56;101236.56;;;15.68;76.55
63090;BME280;49174;43.198;27.824;2023-05-21T03:59:21;101237.38;;;15.75;75.43
63090;BME280;49174;43.198;27.824;2023-05-21T04:01:46;101236.94;;;15.78;74.94
63090;BME280;49174;43.198;27.824;2023-05-21T04:04:12;101228.13;;;15.83;75.56
63090;BME280;49174;43.198;27.824;2023-05-21T04:06:37;101238.91;;;15.96;74.37
63090;BME280;49174;43.198;27.824;2023-05-21T04:09:08;101232.38;;;16.04;73.96
63090;BME280;49174;43.198;27.824;2023-05-21T04:11:34;101236.88;;;16.17;71.44
63090;BME280;49174;43.198;27.824;2023-05-21T04:13:59;101235.78;;;16.24;69.66
63090;BME280;49174;43.198;27.824;2023-05-21T04:16:25;101229.38;;;16.37;70.10
63090;BME280;49174;43.198;27.824;2023-05-21T04:18:51;101231.34;;;16.48;68.20
63090;BME280;49174;43.198;27.824;2023-05-21T04:21:19;101236.75;;;16.55;69.17
63090;BME280;49174;43.198;27.824;2023-05-21T04:23:45;101238.03;;;16.71;65.09
63090;BME280;49174;43.198;27.824;2023-05-21T04:26:11;101236.94;;;16.79;67.20
63090;BME280;49174;43.198;27.824;2023-05-21T04:28:36;101239.75;;;16.90;67.57
63090;BME280;49174;43.198;27.824;2023-05-21T04:31:08;101231.28;;;16.98;66.04
63090;BME280;49174;43.198;27.824;2023-05-21T04:33:33;101232.03;;;17.06;68.26
63090;BME280;49174;43.198;27.824;2023-05-21T04:36:00;101231.59;;;17.09;68.15
63090;BME280;49174;43.198;27.824;2023-05-21T04:38:26;101231.13;;;17.12;67.45
63090;BME280;49174;43.198;27.824;2023-05-21T04:40:51;101230.66;;;17.15;68.70
63090;BME280;49174;43.198;27.824;2023-05-21T04:43:18;101227.63;;;17.23;68.69
63090;BME280;49174;43.198;27.824;2023-05-21T04:45:50;101223.06;;;17.35;68.62
63090;BME280;49174;43.198;27.824;2023-05-21T04:48:16;101232.00;;;17.42;69.50
63090;BME280;49174;43.198;27.824;2023-05-21T04:50:42;101235.91;;;17.47;67.91
63090;BME280;49174;43.198;27.824;2023-05-21T04:53:08;101233.72;;;17.55;68.29
63090;BME280;49174;43.198;27.824;2023-05-21T04:55:33;101224.47;;;17.56;67.29
63090;BME280;49174;43.198;27.824;2023-05-21T04:58:06;101229.34;;;17.66;66.17
63090;BME280;49174;43.198;27.824;2023-05-21T05:00:37;101231.91;;;17.79;66.77
63090;BME280;49174;43.198;27.824;2023-05-21T05:03:02;101236.34;;;17.92;66.89
63090;BME280;49174;43.198;27.824;2023-05-21T05:05:28;101226.16;;;17.99;64.62
63090;BME280;49174;43.198;27.824;2023-05-21T05:07:54;101232.13;;;18.08;64.36
63090;BME280;49174;43.198;27.824;2023-05-21T05:10:20;101228.34;;;18.21;64.30
63090;BME280;49174;43.198;27.824;2023-05-21T05:12:46;101228.34;;;18.33;65.75
63090;BME280;49174;43.198;27.824;2023-05-21T05:15:12;101231.53;;;18.41;65.40
63090;BME280;49174;43.198;27.824;2023-05-21T05:17:37;101238.19;;;18.57;66.82
63090;BME280;49174;43.198;27.824;2023-05-21T05:20:06;101236.69;;;18.61;68.41
63090;BME280;49174;43.198;27.824;2023-05-21T05:22:31;101240.94;;;18.57;65.31
63090;BME280;49174;43.198;27.824;2023-05-21T05:24:57;101233.94;;;18.61;63.27
63090;BME280;49174;43.198;27.824;2023-05-21T05:27:22;101231.56;;;18.65;64.84
63090;BME280;49174;43.198;27.824;2023-05-21T05:29:48;101231.28;;;18.66;64.39
63090;BME280;49174;43.198;27.824;2023-05-21T05:32:13;101219.44;;;18.72;64.73
63090;BME280;49174;43.198;27.824;2023-05-21T05:34:39;101218.97;;;18.75;64.28
63090;BME280;49174;43.198;27.824;2023-05-21T05:37:04;101227.63;;;18.72;64.20
63090;BME280;49174;43.198;27.824;2023-05-21T05:39:30;101225.88;;;18.78;66.07
63090;BME280;49174;43.198;27.824;2023-05-21T05:41:55;101225.50;;;18.86;65.70
63090;BME280;49174;43.198;27.824;2023-05-21T05:44:21;101220.50;;;18.95;64.31
63090;BME280;49174;43.198;27.824;2023-05-21T05:46:46;101225.94;;;19.07;64.14
63090;BME280;49174;43.198;27.824;2023-05-21T05:49:12;101229.06;;;19.27;64.21
63090;BME280;49174;43.198;27.824;2023-05-21T05:51:38;101219.16;;;19.38;64.01
63090;BME280;49174;43.198;27.824;2023-05-21T05:54:03;101219.47;;;19.53;63.29
63090;BME280;49174;43.198;27.824;2023-05-21T05:56:29;101218.94;;;19.68;63.29
63090;BME280;49174;43.198;27.824;2023-05-21T05:58:54;101217.88;;;19.86;64.50
63090;BME280;49174;43.198;27.824;2023-05-21T06:01:20;101224.78;;;20.05;60.81
63090;BME280;49174;43.198;27.824;2023-05-21T06:03:49;101225.72;;;20.28;58.20
63090;BME280;49174;43.198;27.824;2023-05-21T06:06:15;101220.41;;;20.38;55.21
63090;BME280;49174;43.198;27.824;2023-05-21T06:08:41;101218.97;;;20.52;55.88
63090;BME280;49174;43.198;27.824;2023-05-21T06:11:07;101218.06;;;20.64;53.22
63090;BME280;49174;43.198;27.824;2023-05-21T06:13:32;101218.97;;;20.69;53.56
63090;BME280;49174;43.198;27.824;2023-05-21T06:15:58;101207.75;;;20.71;51.49
63090;BME280;49174;43.198;27.824;2023-05-21T06:18:23;101210.00;;;20.74;52.37
63090;BME280;49174;43.198;27.824;2023-05-21T06:20:49;101213.25;;;20.71;48.97
63090;BME280;49174;43.198;27.824;2023-05-21T06:23:14;101213.38;;;20.81;50.95
63090;BME280;49174;43.198;27.824;2023-05-21T06:25:40;101214.66;;;20.95;50.79
63090;BME280;49174;43.198;27.824;2023-05-21T06:28:05;101213.66;;;21.02;48.61
63090;BME280;49174;43.198;27.824;2023-05-21T06:30:32;101210.75;;;21.13;48.32
63090;BME280;49174;43.198;27.824;2023-05-21T06:32:57;101219.94;;;21.24;47.56
63090;BME280;49174;43.198;27.824;2023-05-21T06:35:23;101209.66;;;21.36;46.33
63090;BME280;49174;43.198;27.824;2023-05-21T06:37:49;101202.31;;;21.42;45.57
63090;BME280;49174;43.198;27.824;2023-05-21T06:40:15;101206.00;;;21.53;43.93
63090;BME280;49174;43.198;27.824;2023-05-21T06:42:41;101197.94;;;21.68;46.22
63090;BME280;49174;43.198;27.824;2023-05-21T06:45:07;101197.53;;;21.81;45.23
63090;BME280;49174;43.198;27.824;2023-05-21T06:47:32;101194.13;;;22.01;46.40
63090;BME280;49174;43.198;27.824;2023-05-21T06:49:58;101195.16;;;22.27;47.75
63090;BME280;49174;43.198;27.824;2023-05-21T06:52:24;101191.50;;;22.54;44.57
63090;BME280;49174;43.198;27.824;2023-05-21T06:54:51;101196.81;;;22.71;41.85
63090;BME280;49174;43.198;27.824;2023-05-21T06:57:16;101189.97;;;22.79;43.98
63090;BME280;49174;43.198;27.824;2023-05-21T06:59:42;101192.75;;;22.84;44.36
63090;BME280;49174;43.198;27.824;2023-05-21T07:02:08;101190.00;;;22.84;42.29
63090;BME280;49174;43.198;27.824;2023-05-21T07:04:33;101185.88;;;22.86;41.75
63090;BME280;49174;43.198;27.824;2023-05-21T07:07:00;101188.13;;;22.94;43.26
63090;BME280;49174;43.198;27.824;2023-05-21T07:09:25;101187.38;;;23.04;43.43
63090;BME280;49174;43.198;27.824;2023-05-21T07:11:51;101183.00;;;23.13;42.42
63090;BME280;49174;43.198;27.824;2023-05-21T07:14:18;101176.41;;;23.25;43.92
63090;BME280;49174;43.198;27.824;2023-05-21T07:16:43;101175.91;;;23.33;41.19
63090;BME280;49174;43.198;27.824;2023-05-21T07:19:09;101176.72;;;23.38;42.08
63090;BME280;49174;43.198;27.824;2023-05-21T07:21:34;101172.06;;;23.44;40.12
63090;BME280;49174;43.198;27.824;2023-05-21T07:24:00;101165.19;;;23.47;41.15
63090;BME280;49174;43.198;27.824;2023-05-21T07:26:25;101159.69;;;23.57;42.15
63090;BME280;49174;43.198;27.824;2023-05-21T07:28:51;101164.41;;;23.72;39.61
63090;BME280;49174;43.198;27.824;2023-05-21T07:31:16;101160.81;;;23.86;38.66
63090;BME280;49174;43.198;27.824;2023-05-21T07:33:42;101165.50;;;24.01;39.29
63090;BME280;49174;43.198;27.824;2023-05-21T07:36:07;101165.50;;;24.22;40.45
63090;BME280;49174;43.198;27.824;2023-05-21T07:38:33;101161.59;;;24.38;40.65
63090;BME280;49174;43.198;27.824;2023-05-21T07:40:58;101160.22;;;24.51;41.01
63090;BME280;49174;43.198;27.824;2023-05-21T07:43:24;101163.25;;;24.55;39.60
63090;BME280;49174;43.198;27.824;2023-05-21T07:45:49;101161.81;;;24.62;41.91
63090;BME280;49174;43.198;27.824;2023-05-21T07:48:15;101165.13;;;24.69;39.58
63090;BME280;49174;43.198;27.824;2023-05-21T07:50:41;101159.59;;;24.74;38.90
63090;BME280;49174;43.198;27.824;2023-05-21T07:53:06;101160.13;;;24.77;40.00
63090;BME280;49174;43.198;27.824;2023-05-21T07:55:32;101157.63;;;24.80;38.71
63090;BME280;49174;43.198;27.824;2023-05-21T07:57:57;101159.75;;;24.98;40.61
63090;BME280;49174;43.198;27.824;2023-05-21T08:00:23;101160.94;;;25.42;39.41
63090;BME280;49174;43.198;27.824;2023-05-21T08:02:49;101160.78;;;25.62;38.36
63090;BME280;49174;43.198;27.824;2023-05-21T08:05:16;101155.00;;;25.59;37.19
63090;BME280;49174;43.198;27.824;2023-05-21T08:07:42;101163.66;;;25.81;36.57
63090;BME280;49174;43.198;27.824;2023-05-21T08:10:07;101169.09;;;26.26;36.80
63090;BME280;49174;43.198;27.824;2023-05-21T08:12:33;101154.44;;;26.55;35.97
63090;BME280;49174;43.198;27.824;2023-05-21T08:14:59;101159.84;;;26.89;35.16
63090;BME280;49174;43.198;27.824;2023-05-21T08:17:25;101164.50;;;27.36;34.47
63090;BME280;49174;43.198;27.824;2023-05-21T08:19:52;101167.97;;;27.80;35.25
63090;BME280;49174;43.198;27.824;2023-05-21T08:22:18;101168.25;;;27.97;34.22
63090;BME280;49174;43.198;27.824;2023-05-21T08:24:43;101182.50;;;27.72;35.85
63090;BME280;49174;43.198;27.824;2023-05-21T08:27:09;101187.44;;;27.18;38.78
63090;BME280;49174;43.198;27.824;2023-05-21T08:29:35;101178.81;;;26.77;40.93
63090;BME280;49174;43.198;27.824;2023-05-21T08:32:00;101183.88;;;26.40;42.39
63090;BME280;49174;43.198;27.824;2023-05-21T08:34:26;101187.53;;;26.06;42.86
63090;BME280;49174;43.198;27.824;2023-05-21T08:36:51;101183.09;;;25.71;39.89
63090;BME280;49174;43.198;27.824;2023-05-21T08:39:18;101191.53;;;25.51;41.32
63090;BME280;49174;43.198;27.824;2023-05-21T08:41:44;101188.94;;;25.25;40.35
63090;BME280;49174;43.198;27.824;2023-05-21T08:44:14;101196.47;;;24.99;39.92
63090;BME280;49174;43.198;27.824;2023-05-21T08:46:48;101196.84;;;24.77;40.21
63090;BME280;49174;43.198;27.824;2023-05-21T08:49:16;101196.59;;;24.68;40.38
63090;BME280;49174;43.198;27.824;2023-05-21T08:51:44;101197.75;;;24.52;43.47
63090;BME280;49174;43.198;27.824;2023-05-21T08:54:10;101202.72;;;24.45;46.58
63090;BME280;49174;43.198;27.824;2023-05-21T08:56:40;101202.41;;;24.31;45.41
63090;BME280;49174;43.198;27.824;2023-05-21T08:59:11;101207.41;;;24.14;40.83
63090;BME280;49174;43.198;27.824;2023-05-21T09:01:37;101211.53;;;24.11;41.47
63090;BME280;49174;43.198;27.824;2023-05-21T09:04:07;101212.91;;;24.14;41.12
63090;BME280;49174;43.198;27.824;2023-05-21T09:06:33;101212.38;;;23.96;40.55
63090;BME280;49174;43.198;27.824;2023-05-21T09:09:03;101213.19;;;23.92;40.79
63090;BME280;49174;43.198;27.824;2023-05-21T09:11:30;101223.94;;;23.83;41.80
63090;BME280;49174;43.198;27.824;2023-05-21T09:13:56;101221.16;;;23.78;41.86
63090;BME280;49174;43.198;27.824;2023-05-21T09:16:22;101234.38;;;23.76;44.45
63090;BME280;49174;43.198;27.824;2023-05-21T09:18:47;101233.84;;;23.84;45.06
63090;BME280;49174;43.198;27.824;2023-05-21T09:21:39;101231.63;;;23.71;44.99
63090;BME280;49174;43.198;27.824;2023-05-21T09:24:05;101230.47;;;23.61;47.72
63090;BME280;49174;43.198;27.824;2023-05-21T09:26:33;101242.56;;;23.50;48.22
63090;BME280;49174;43.198;27.824;2023-05-21T09:28:59;101229.41;;;23.73;47.52
63090;BME280;49174;43.198;27.824;2023-05-21T09:31:25;101224.50;;;24.00;45.02
63090;BME280;49174;43.198;27.824;2023-05-21T09:33:51;101231.66;;;24.27;45.64
63090;BME280;49174;43.198;27.824;2023-05-21T09:36:18;101224.47;;;24.26;41.58
63090;BME280;49174;43.198;27.824;2023-05-21T09:38:47;101229.72;;;24.38;42.19
63090;BME280;49174;43.198;27.824;2023-05-21T09:41:13;101224.47;;;24.57;42.42
63090;BME280;49174;43.198;27.824;2023-05-21T09:43:42;101222.75;;;24.86;40.39
63090;BME280;49174;43.198;27.824;2023-05-21T09:46:11;101222.09;;;25.10;40.56
63090;BME280;49174;43.198;27.824;2023-05-21T09:48:41;101220.13;;;25.26;39.01
63090;BME280;49174;43.198;27.824;2023-05-21T09:51:14;101230.34;;;25.30;40.74
63090;BME280;49174;43.198;27.824;2023-05-21T09:53:54;101219.75;;;25.42;39.54
63090;BME280;49174;43.198;27.824;2023-05-21T09:56:21;101226.91;;;25.49;38.72
63090;BME280;49174;43.198;27.824;2023-05-21T09:58:51;101216.94;;;25.53;40.14
63090;BME280;49174;43.198;27.824;2023-05-21T10:01:19;101212.47;;;25.57;37.62
63090;BME280;49174;43.198;27.824;2023-05-21T10:03:52;101216.81;;;25.68;38.89
63090;BME280;49174;43.198;27.824;2023-05-21T10:06:20;101221.66;;;25.97;39.80
63090;BME280;49174;43.198;27.824;2023-05-21T10:08:47;101214.72;;;26.58;38.01
63090;BME280;49174;43.198;27.824;2023-05-21T10:11:18;101210.97;;;27.21;38.90
63090;BME280;49174;43.198;27.824;2023-05-21T10:13:51;101216.09;;;27.89;36.21
63090;BME280;49174;43.198;27.824;2023-05-21T10:16:19;101218.13;;;28.49;35.56
63090;BME280;49174;43.198;27.824;2023-05-21T10:18:45;101205.09;;;29.05;34.34
63090;BME280;49174;43.198;27.824;2023-05-21T10:21:13;101212.94;;;29.39;32.35
63090;BME280;49174;43.198;27.824;2023-05-21T10:23:41;101218.28;;;29.63;32.07
63090;BME280;49174;43.198;27.824;2023-05-21T10:26:08;101224.09;;;29.75;31.86
63090;BME280;49174;43.198;27.824;2023-05-21T10:28:35;101212.28;;;29.70;31.80
63090;BME280;49174;43.198;27.824;2023-05-21T10:31:01;101215.59;;;29.58;30.76
63090;BME280;49174;43.198;27.824;2023-05-21T10:33:28;101218.13;;;29.32;31.97
63090;BME280;49174;43.198;27.824;2023-05-21T10:35:57;101219.59;;;29.02;31.75
63090;BME280;49174;43.198;27.824;2023-05-21T10:38:23;101217.00;;;28.91;32.76
63090;BME280;49174;43.198;27.824;2023-05-21T10:40:49;101226.66;;;28.52;33.57
63090;BME280;49174;43.198;27.824;2023-05-21T10:43:29;101219.47;;;28.65;33.85
63090;BME280;49174;43.198;27.824;2023-05-21T10:48:38;101221.66;;;29.10;32.38
63090;BME280;49174;43.198;27.824;2023-05-21T10:51:17;101227.22;;;29.24;31.86
63090;BME280;49174;43.198;27.824;2023-05-21T10:59:42;101221.78;;;28.31;33.13
63090;BME280;49174;43.198;27.824;2023-05-21T11:02:12;101230.63;;;28.14;33.68
63090;BME280;49174;43.198;27.824;2023-05-21T11:04:39;101226.22;;;28.13;34.58
63090;BME280;49174;43.198;27.824;2023-05-21T11:07:06;101220.44;;;27.95;33.19
63090;BME280;49174;43.198;27.824;2023-05-21T11:09:32;101219.28;;;27.77;33.43
63090;BME280;49174;43.198;27.824;2023-05-21T11:11:58;101230.69;;;27.76;34.99
63090;BME280;49174;43.198;27.824;2023-05-21T11:14:37;101226.50;;;27.78;35.54
63090;BME280;49174;43.198;27.824;2023-05-21T11:17:10;101217.94;;;27.94;35.29
63090;BME280;49174;43.198;27.824;2023-05-21T11:19:40;101216.78;;;28.14;34.47
63090;BME280;49174;43.198;27.824;2023-05-21T11:24:39;101213.47;;;28.44;35.56
63090;BME280;49174;43.198;27.824;2023-05-21T11:27:05;101211.13;;;28.51;33.95
63090;BME280;49174;43.198;27.824;2023-05-21T11:29:35;101208.91;;;28.81;34.44
63090;BME280;49174;43.198;27.824;2023-05-21T11:32:05;101209.72;;;28.95;33.99
63090;BME280;49174;43.198;27.824;2023-05-21T11:34:45;101213.44;;;29.05;33.17
63090;BME280;49174;43.198;27.824;2023-05-21T11:39:49;101217.34;;;28.90;33.61
63090;BME280;49174;43.198;27.824;2023-05-21T11:42:37;101213.41;;;28.63;33.37
63090;BME280;49174;43.198;27.824;2023-05-21T11:45:03;101204.09;;;28.40;33.71
63090;BME280;49174;43.198;27.824;2023-05-21T11:47:30;101217.22;;;28.21;34.29
63090;BME280;49174;43.198;27.824;2023-05-21T11:49:58;101206.41;;;28.05;34.60
63090;BME280;49174;43.198;27.824;2023-05-21T11:52:26;101212.41;;;27.94;34.66
63090;BME280;49174;43.198;27.824;2023-05-21T11:54:53;101209.34;;;27.95;35.11
63090;BME280;49174;43.198;27.824;2023-05-21T11:57:22;101204.25;;;27.83;34.94
63090;BME280;49174;43.198;27.824;2023-05-21T11:59:50;101201.16;;;27.85;34.89
63090;BME280;49174;43.198;27.824;2023-05-21T12:02:18;101199.59;;;27.79;34.76
63090;BME280;49174;43.198;27.824;2023-05-21T12:04:48;101199.72;;;27.69;33.45
63090;BME280;49174;43.198;27.824;2023-05-21T12:07:17;101203.03;;;27.52;33.80
63090;BME280;49174;43.198;27.824;2023-05-21T12:09:50;101208.00;;;27.36;33.73
63090;BME280;49174;43.198;27.824;2023-05-21T12:12:24;101197.41;;;27.19;34.12
63090;BME280;49174;43.198;27.824;2023-05-21T12:14:53;101196.56;;;27.18;34.52
63090;BME280;49174;43.198;27.824;2023-05-21T12:17:25;101195.78;;;27.13;34.99
63090;BME280;49174;43.198;27.824;2023-05-21T12:19:55;101191.94;;;26.90;33.87
63090;BME280;49174;43.198;27.824;2023-05-21T12:22:22;101194.91;;;26.74;34.53
63090;BME280;49174;43.198;27.824;2023-05-21T12:24:49;101200.66;;;26.49;35.77
63090;BME280;49174;43.198;27.824;2023-05-21T12:27:15;101210.63;;;26.21;35.55
63090;BME280;49174;43.198;27.824;2023-05-21T12:29:42;101205.28;;;25.61;39.92
63090;BME280;49174;43.198;27.824;2023-05-21T12:32:10;101202.19;;;25.23;44.84
63090;BME280;49174;43.198;27.824;2023-05-21T12:34:41;101197.72;;;24.31;47.84
63090;BME280;49174;43.198;27.824;2023-05-21T12:37:20;101200.97;;;23.41;50.60
63090;BME280;49174;43.198;27.824;2023-05-21T12:39:48;101203.66;;;23.21;52.33
63090;BME280;49174;43.198;27.824;2023-05-21T12:42:14;101201.59;;;22.91;54.08
63090;BME280;49174;43.198;27.824;2023-05-21T12:44:46;101205.81;;;22.61;55.01
63090;BME280;49174;43.198;27.824;2023-05-21T12:47:12;101197.72;;;22.39;56.52
63090;BME280;49174;43.198;27.824;2023-05-21T12:49:42;101197.69;;;22.34;57.24
63090;BME280;49174;43.198;27.824;2023-05-21T12:52:19;101190.78;;;22.26;57.19
63090;BME280;49174;43.198;27.824;2023-05-21T12:54:49;101191.94;;;22.36;55.45
63090;BME280;49174;43.198;27.824;2023-05-21T12:57:19;101194.06;;;22.76;55.09
63090;BME280;49174;43.198;27.824;2023-05-21T13:04:45;101176.75;;;23.54;51.90
63090;BME280;49174;43.198;27.824;2023-05-21T13:07:12;101174.88;;;23.95;50.70
63090;BME280;49174;43.198;27.824;2023-05-21T13:09:38;101167.69;;;24.25;50.06
63090;BME280;49174;43.198;27.824;2023-05-21T13:12:03;101182.84;;;24.48;48.67
63090;BME280;49174;43.198;27.824;2023-05-21T13:14:29;101178.66;;;24.66;48.09
63090;BME280;49174;43.198;27.824;2023-05-21T13:16:54;101176.41;;;24.83;45.54
63090;BME280;49174;43.198;27.824;2023-05-21T13:19:20;101186.22;;;25.15;45.67
63090;BME280;49174;43.198;27.824;2023-05-21T13:21:45;101174.13;;;25.50;41.92
63090;BME280;49174;43.198;27.824;2023-05-21T13:24:11;101175.31;;;25.78;36.96
63090;BME280;49174;43.198;27.824;2023-05-21T13:26:36;101168.22;;;26.01;34.94
63090;BME280;49174;43.198;27.824;2023-05-21T13:29:02;101180.47;;;26.24;32.79
63090;BME280;49174;43.198;27.824;2023-05-21T13:31:27;101171.59;;;26.27;33.84
63090;BME280;49174;43.198;27.824;2023-05-21T13:33:53;101175.81;;;26.44;32.78
63090;BME280;49174;43.198;27.824;2023-05-21T13:36:18;101170.66;;;26.66;33.78
63090;BME280;49174;43.198;27.824;2023-05-21T13:38:44;101175.94;;;26.87;31.73
63090;BME280;49174;43.198;27.824;2023-05-21T13:41:09;101170.50;;;27.01;32.33
63090;BME280;49174;43.198;27.824;2023-05-21T13:43:35;101163.06;;;26.96;32.61
63090;BME280;49174;43.198;27.824;2023-05-21T13:46:00;101166.38;;;26.74;30.98
63090;BME280;49174;43.198;27.824;2023-05-21T13:48:26;101154.53;;;26.68;32.92
63090;BME280;49174;43.198;27.824;2023-05-21T13:50:51;101156.53;;;26.87;32.16
63090;BME280;49174;43.198;27.824;2023-05-21T13:53:17;101162.09;;;26.87;31.07
63090;BME280;49174;43.198;27.824;2023-05-21T13:55:42;101164.25;;;26.90;31.61
63090;BME280;49174;43.198;27.824;2023-05-21T13:58:08;101159.59;;;26.85;31.01
63090;BME280;49174;43.198;27.824;2023-05-21T14:00:33;101148.31;;;26.82;30.56